sensor_id;sensor_type;location;lat;lon;timestamp;P1;durP1;ratioP1;P2;durP2;ratioP2
13204;SDS011;6667;52.634;9.226;2023-04-12T07:07:18;2.07;;;1.80;;
13204;SDS011;6667;52.634;9.226;2023-04-12T07:09:45;4.17;;;1.70;;
13204;SDS011;6667;52.634;9.226;2023-04-12T07:12:12;4.53;;;1.93;;
13204;SDS011;6667;52.634;9.226;2023-04-12T07:14:39;4.60;;;1.80;;
13204;SDS011;6667;52.634;9.226;2023-04-12T07:17:05;4.60;;;1.53;;
13204;SDS011;6667;52.634;9.226;2023-04-12T07:19:32;2.45;;;1.90;;
13204;SDS011;6667;52.634;9.226;2023-04-12T07:21:59;4.27;;;1.70;;
13204;SDS011;6667;52.634;9.226;2023-04-12T07:24:27;2.13;;;1.17;;
13204;SDS011;6667;52.634;9.226;2023-04-12T07:26:53;4.60;;;1.70;;
13204;SDS011;6667;52.634;9.226;2023-04-12T07:29:20;5.93;;;1.93;;
13204;SDS011;6667;52.634;9.226;2023-04-12T07:31:46;7.23;;;1.90;;
13204;SDS011;6667;52.634;9.226;2023-04-12T07:34:13;3.27;;;1.60;;
13204;SDS011;6667;52.634;9.226;2023-04-12T07:36:40;2.43;;;1.47;;
13204;SDS011;6667;52.634;9.226;2023-04-12T07:39:07;7.03;;;1.80;;
13204;SDS011;6667;52.634;9.226;2023-04-12T07:41:37;2.00;;;1.40;;
13204;SDS011;6667;52.634;9.226;2023-04-12T07:44:04;2.33;;;1.50;;
13204;SDS011;6667;52.634;9.226;2023-04-12T07:46:31;1.50;;;1.27;;
13204;SDS011;6667;52.634;9.226;2023-04-12T07:48:58;2.17;;;1.30;;
13204;SDS011;6667;52.634;9.226;2023-04-12T07:51:24;7.10;;;2.03;;
13204;SDS011;6667;52.634;9.226;2023-04-12T07:53:51;1.90;;;1.27;;
13204;SDS011;6667;52.634;9.226;2023-04-12T07:56:18;5.43;;;1.90;;
13204;SDS011;6667;52.634;9.226;2023-04-12T07:58:46;2.13;;;1.50;;
13204;SDS011;6667;52.634;9.226;2023-04-12T08:01:13;1.97;;;1.30;;
13204;SDS011;6667;52.634;9.226;2023-04-12T08:03:40;4.40;;;2.33;;
13204;SDS011;6667;52.634;9.226;2023-04-12T08:06:07;3.60;;;1.50;;
13204;SDS011;6667;52.634;9.226;2023-04-12T08:08:34;2.37;;;1.37;;
13204;SDS011;6667;52.634;9.226;2023-04-12T08:11:01;2.87;;;1.57;;
13204;SDS011;6667;52.634;9.226;2023-04-12T08:13:30;3.60;;;1.90;;
13204;SDS011;6667;52.634;9.226;2023-04-12T08:15:58;3.60;;;1.90;;
13204;SDS011;6667;52.634;9.226;2023-04-12T08:18:25;3.40;;;2.23;;
13204;SDS011;6667;52.634;9.226;2023-04-12T08:20:53;4.47;;;1.87;;
13204;SDS011;6667;52.634;9.226;2023-04-12T08:23:19;3.33;;;2.07;;
13204;SDS011;6667;52.634;9.226;2023-04-12T08:25:47;4.37;;;2.00;;
13204;SDS011;6667;52.634;9.226;2023-04-12T08:28:13;3.00;;;1.60;;
13204;SDS011;6667;52.634;9.226;2023-04-12T08:30:40;3.27;;;1.67;;
13204;SDS011;6667;52.634;9.226;2023-04-12T08:33:09;4.83;;;1.70;;
13204;SDS011;6667;52.634;9.226;2023-04-12T08:35:36;2.93;;;1.43;;
13204;SDS011;6667;52.634;9.226;2023-04-12T08:38:03;4.47;;;2.63;;
13204;SDS011;6667;52.634;9.226;2023-04-12T08:40:31;4.73;;;1.43;;
13204;SDS011;6667;52.634;9.226;2023-04-12T08:42:58;3.33;;;1.90;;
13204;SDS011;6667;52.634;9.226;2023-04-12T08:45:26;3.90;;;1.83;;
13204;SDS011;6667;52.634;9.226;2023-04-12T08:47:54;4.17;;;1.50;;
13204;SDS011;6667;52.634;9.226;2023-04-12T08:50:22;6.13;;;1.40;;
13204;SDS011;6667;52.634;9.226;2023-04-12T08:52:51;5.90;;;1.67;;
13204;SDS011;6667;52.634;9.226;2023-04-12T08:55:19;4.23;;;1.90;;
13204;SDS011;6667;52.634;9.226;2023-04-12T08:57:45;4.43;;;1.67;;
13204;SDS011;6667;52.634;9.226;2023-04-12T09:00:13;2.57;;;1.33;;
13204;SDS011;6667;52.634;9.226;2023-04-12T09:02:40;2.27;;;1.23;;
13204;SDS011;6667;52.634;9.226;2023-04-12T09:05:10;4.93;;;2.03;;
13204;SDS011;6667;52.634;9.226;2023-04-12T09:07:39;2.20;;;1.80;;
13204;SDS011;6667;52.634;9.226;2023-04-12T09:10:06;3.40;;;1.20;;
13204;SDS011;6667;52.634;9.226;2023-04-12T09:12:33;2.13;;;1.60;;
13204;SDS011;6667;52.634;9.226;2023-04-12T09:15:05;2.33;;;1.63;;
13204;SDS011;6667;52.634;9.226;2023-04-12T09:17:33;3.53;;;1.40;;
13204;SDS011;6667;52.634;9.226;2023-04-12T09:20:03;3.67;;;1.43;;
13204;SDS011;6667;52.634;9.226;2023-04-12T09:22:59;2.23;;;1.43;;
13204;SDS011;6667;52.634;9.226;2023-04-12T09:25:36;4.43;;;1.77;;
13204;SDS011;6667;52.634;9.226;2023-04-12T09:28:16;5.37;;;1.93;;
13204;SDS011;6667;52.634;9.226;2023-04-12T09:30:44;1.67;;;1.33;;
13204;SDS011;6667;52.634;9.226;2023-04-12T09:33:15;1.93;;;1.33;;
13204;SDS011;6667;52.634;9.226;2023-04-12T09:35:43;3.87;;;1.20;;
13204;SDS011;6667;52.634;9.226;2023-04-12T09:38:11;2.27;;;1.20;;
13204;SDS011;6667;52.634;9.226;2023-04-12T09:40:38;2.63;;;1.03;;
13204;SDS011;6667;52.634;9.226;2023-04-12T09:43:05;2.23;;;1.60;;
13204;SDS011;6667;52.634;9.226;2023-04-12T09:45:32;3.50;;;1.10;;
13204;SDS011;6667;52.634;9.226;2023-04-12T09:48:00;1.50;;;1.10;;
13204;SDS011;6667;52.634;9.226;2023-04-12T09:50:27;1.47;;;1.23;;
13204;SDS011;6667;52.634;9.226;2023-04-12T09:52:57;4.20;;;1.10;;
13204;SDS011;6667;52.634;9.226;2023-04-12T09:55:26;1.10;;;1.00;;
13204;SDS011;6667;52.634;9.226;2023-04-12T09:57:55;2.30;;;1.20;;
13204;SDS011;6667;52.634;9.226;2023-04-12T10:00:25;2.47;;;1.40;;
13204;SDS011;6667;52.634;9.226;2023-04-12T10:02:53;2.40;;;1.17;;
13204;SDS011;6667;52.634;9.226;2023-04-12T10:05:21;1.93;;;1.37;;
13204;SDS011;6667;52.634;9.226;2023-04-12T10:07:49;1.93;;;1.50;;
13204;SDS011;6667;52.634;9.226;2023-04-12T10:10:17;2.60;;;1.80;;
13204;SDS011;6667;52.634;9.226;2023-04-12T10:12:47;1.83;;;1.00;;
13204;SDS011;6667;52.634;9.226;2023-04-12T10:15:14;2.00;;;1.80;;
13204;SDS011;6667;52.634;9.226;2023-04-12T10:17:42;1.70;;;1.40;;
13204;SDS011;6667;52.634;9.226;2023-04-12T10:20:10;3.33;;;1.50;;
13204;SDS011;6667;52.634;9.226;2023-04-12T10:22:38;2.20;;;1.40;;
13204;SDS011;6667;52.634;9.226;2023-04-12T10:25:08;3.83;;;1.73;;
13204;SDS011;6667;52.634;9.226;2023-04-12T10:27:38;1.30;;;1.20;;
13204;SDS011;6667;52.634;9.226;2023-04-12T10:30:23;2.03;;;1.43;;
13204;SDS011;6667;52.634;9.226;2023-04-12T10:33:09;2.60;;;1.57;;
13204;SDS011;6667;52.634;9.226;2023-04-12T10:35:48;4.43;;;1.40;;
13204;SDS011;6667;52.634;9.226;2023-04-12T10:38:16;4.00;;;1.57;;
13204;SDS011;6667;52.634;9.226;2023-04-12T10:43:41;3.27;;;1.40;;
13204;SDS011;6667;52.634;9.226;2023-04-12T10:49:14;3.20;;;1.90;;
13204;SDS011;6667;52.634;9.226;2023-04-12T10:51:44;1.63;;;1.53;;
13204;SDS011;6667;52.634;9.226;2023-04-12T10:54:37;6.60;;;1.90;;
13204;SDS011;6667;52.634;9.226;2023-04-12T10:57:04;2.57;;;1.63;;
13204;SDS011;6667;52.634;9.226;2023-04-12T11:02:24;2.53;;;1.37;;
13204;SDS011;6667;52.634;9.226;2023-04-12T11:05:04;3.53;;;1.80;;
13204;SDS011;6667;52.634;9.226;2023-04-12T11:07:38;8.13;;;1.80;;
13204;SDS011;6667;52.634;9.226;2023-04-12T11:10:11;4.23;;;2.10;;
13204;SDS011;6667;52.634;9.226;2023-04-12T11:12:39;5.63;;;2.20;;
13204;SDS011;6667;52.634;9.226;2023-04-12T11:15:09;2.17;;;1.57;;
13204;SDS011;6667;52.634;9.226;2023-04-12T11:17:39;5.70;;;1.70;;
13204;SDS011;6667;52.634;9.226;2023-04-12T11:20:09;3.90;;;1.77;;
13204;SDS011;6667;52.634;9.226;2023-04-12T11:22:37;3.93;;;1.63;;
13204;SDS011;6667;52.634;9.226;2023-04-12T11:25:05;2.87;;;1.73;;
13204;SDS011;6667;52.634;9.226;2023-04-12T11:27:32;3.17;;;1.70;;
13204;SDS011;6667;52.634;9.226;2023-04-12T11:29:59;1.97;;;1.50;;
13204;SDS011;6667;52.634;9.226;2023-04-12T11:32:27;3.60;;;1.63;;
13204;SDS011;6667;52.634;9.226;2023-04-12T11:34:56;2.37;;;1.40;;
13204;SDS011;6667;52.634;9.226;2023-04-12T11:37:24;3.70;;;2.00;;
13204;SDS011;6667;52.634;9.226;2023-04-12T11:39:52;1.50;;;1.40;;
13204;SDS011;6667;52.634;9.226;2023-04-12T11:42:22;3.63;;;1.83;;
13204;SDS011;6667;52.634;9.226;2023-04-12T11:44:49;2.10;;;1.90;;
13204;SDS011;6667;52.634;9.226;2023-04-12T11:47:17;2.60;;;2.10;;
13204;SDS011;6667;52.634;9.226;2023-04-12T11:49:46;2.67;;;2.33;;
13204;SDS011;6667;52.634;9.226;2023-04-12T11:52:15;1.53;;;1.43;;
13204;SDS011;6667;52.634;9.226;2023-04-12T11:54:43;3.57;;;1.20;;
13204;SDS011;6667;52.634;9.226;2023-04-12T11:57:11;5.80;;;2.00;;
13204;SDS011;6667;52.634;9.226;2023-04-12T11:59:39;2.07;;;1.87;;
13204;SDS011;6667;52.634;9.226;2023-04-12T12:02:08;2.47;;;1.77;;
13204;SDS011;6667;52.634;9.226;2023-04-12T12:04:35;3.73;;;1.97;;
13204;SDS011;6667;52.634;9.226;2023-04-12T12:07:02;1.73;;;1.50;;
13204;SDS011;6667;52.634;9.226;2023-04-12T12:09:31;2.83;;;1.93;;
13204;SDS011;6667;52.634;9.226;2023-04-12T12:11:59;1.87;;;1.63;;
13204;SDS011;6667;52.634;9.226;2023-04-12T12:14:26;2.00;;;1.37;;
13204;SDS011;6667;52.634;9.226;2023-04-12T12:16:53;3.73;;;1.93;;
13204;SDS011;6667;52.634;9.226;2023-04-12T12:19:28;2.17;;;1.60;;
13204;SDS011;6667;52.634;9.226;2023-04-12T12:22:09;1.90;;;1.70;;
13204;SDS011;6667;52.634;9.226;2023-04-12T12:24:38;1.67;;;1.53;;
13204;SDS011;6667;52.634;9.226;2023-04-12T12:27:09;2.00;;;1.50;;
13204;SDS011;6667;52.634;9.226;2023-04-12T12:29:36;3.43;;;1.57;;
13204;SDS011;6667;52.634;9.226;2023-04-12T12:32:08;1.67;;;1.50;;
13204;SDS011;6667;52.634;9.226;2023-04-12T12:34:36;2.03;;;1.90;;
13204;SDS011;6667;52.634;9.226;2023-04-12T12:37:06;1.50;;;1.40;;
13204;SDS011;6667;52.634;9.226;2023-04-12T12:39:34;2.50;;;1.43;;
13204;SDS011;6667;52.634;9.226;2023-04-12T12:42:02;2.23;;;1.53;;
13204;SDS011;6667;52.634;9.226;2023-04-12T12:44:30;3.30;;;1.63;;
13204;SDS011;6667;52.634;9.226;2023-04-12T12:46:57;2.27;;;1.60;;
13204;SDS011;6667;52.634;9.226;2023-04-12T12:49:25;2.40;;;1.70;;
13204;SDS011;6667;52.634;9.226;2023-04-12T12:51:52;1.83;;;1.67;;
13204;SDS011;6667;52.634;9.226;2023-04-12T12:54:20;2.03;;;1.83;;
13204;SDS011;6667;52.634;9.226;2023-04-12T12:56:47;1.30;;;1.10;;
13204;SDS011;6667;52.634;9.226;2023-04-12T12:59:14;1.73;;;1.47;;
13204;SDS011;6667;52.634;9.226;2023-04-12T13:01:41;1.83;;;1.40;;
13204;SDS011;6667;52.634;9.226;2023-04-12T13:04:08;2.00;;;1.30;;
13204;SDS011;6667;52.634;9.226;2023-04-12T13:06:35;1.57;;;1.47;;
13204;SDS011;6667;52.634;9.226;2023-04-12T13:09:03;3.33;;;1.60;;
13204;SDS011;6667;52.634;9.226;2023-04-12T13:11:30;2.17;;;1.60;;
13204;SDS011;6667;52.634;9.226;2023-04-12T13:13:57;1.97;;;1.60;;
13204;SDS011;6667;52.634;9.226;2023-04-12T13:16:25;1.77;;;1.50;;
13204;SDS011;6667;52.634;9.226;2023-04-12T13:18:54;1.60;;;1.50;;
13204;SDS011;6667;52.634;9.226;2023-04-12T13:21:21;2.80;;;1.40;;
13204;SDS011;6667;52.634;9.226;2023-04-12T13:23:48;2.00;;;1.60;;
13204;SDS011;6667;52.634;9.226;2023-04-12T13:26:15;2.40;;;1.83;;
13204;SDS011;6667;52.634;9.226;2023-04-12T13:28:43;2.87;;;1.37;;
13204;SDS011;6667;52.634;9.226;2023-04-12T13:31:10;1.77;;;1.50;;
13204;SDS011;6667;52.634;9.226;2023-04-12T13:33:38;1.70;;;1.60;;
13204;SDS011;6667;52.634;9.226;2023-04-12T13:36:06;1.60;;;1.50;;
13204;SDS011;6667;52.634;9.226;2023-04-12T13:38:33;4.87;;;2.93;;
13204;SDS011;6667;52.634;9.226;2023-04-12T13:41:00;3.57;;;1.97;;
13204;SDS011;6667;52.634;9.226;2023-04-12T13:43:27;1.70;;;1.60;;
13204;SDS011;6667;52.634;9.226;2023-04-12T13:45:54;1.37;;;1.27;;
13204;SDS011;6667;52.634;9.226;2023-04-12T13:48:21;2.30;;;1.40;;
13204;SDS011;6667;52.634;9.226;2023-04-12T13:50:49;1.73;;;1.63;;
13204;SDS011;6667;52.634;9.226;2023-04-12T13:53:16;1.33;;;1.23;;
13204;SDS011;6667;52.634;9.226;2023-04-12T13:55:42;2.33;;;1.70;;
13204;SDS011;6667;52.634;9.226;2023-04-12T13:58:10;1.67;;;1.57;;
13204;SDS011;6667;52.634;9.226;2023-04-12T14:00:36;4.43;;;1.77;;
13204;SDS011;6667;52.634;9.226;2023-04-12T14:03:03;2.40;;;1.60;;
13204;SDS011;6667;52.634;9.226;2023-04-12T14:05:30;1.73;;;1.60;;
13204;SDS011;6667;52.634;9.226;2023-04-12T14:07:57;2.13;;;1.87;;
13204;SDS011;6667;52.634;9.226;2023-04-12T14:10:24;3.60;;;2.40;;
13204;SDS011;6667;52.634;9.226;2023-04-12T14:12:51;2.27;;;2.07;;
13204;SDS011;6667;52.634;9.226;2023-04-12T14:15:17;2.20;;;1.80;;
13204;SDS011;6667;52.634;9.226;2023-04-12T14:17:44;1.57;;;1.47;;
13204;SDS011;6667;52.634;9.226;2023-04-12T14:20:11;3.17;;;2.03;;
13204;SDS011;6667;52.634;9.226;2023-04-12T14:22:38;1.77;;;1.67;;
13204;SDS011;6667;52.634;9.226;2023-04-12T14:25:06;2.30;;;2.10;;
13204;SDS011;6667;52.634;9.226;2023-04-12T14:27:35;3.17;;;2.10;;
13204;SDS011;6667;52.634;9.226;2023-04-12T14:30:03;3.33;;;1.97;;
13204;SDS011;6667;52.634;9.226;2023-04-12T14:32:31;2.73;;;1.90;;
13204;SDS011;6667;52.634;9.226;2023-04-12T14:34:57;4.60;;;2.30;;
13204;SDS011;6667;52.634;9.226;2023-04-12T14:37:24;2.87;;;2.10;;
13204;SDS011;6667;52.634;9.226;2023-04-12T14:39:52;2.30;;;1.90;;
13204;SDS011;6667;52.634;9.226;2023-04-12T14:42:20;7.70;;;2.20;;
13204;SDS011;6667;52.634;9.226;2023-04-12T14:44:46;2.40;;;2.20;;
13204;SDS011;6667;52.634;9.226;2023-04-12T14:47:13;2.70;;;2.50;;
13204;SDS011;6667;52.634;9.226;2023-04-12T14:49:39;2.17;;;1.90;;
13204;SDS011;6667;52.634;9.226;2023-04-12T14:52:06;2.13;;;1.80;;
13204;SDS011;6667;52.634;9.226;2023-04-12T14:54:34;3.00;;;2.27;;
13204;SDS011;6667;52.634;9.226;2023-04-12T14:57:00;2.70;;;2.50;;
13204;SDS011;6667;52.634;9.226;2023-04-12T14:59:29;4.13;;;2.40;;
13204;SDS011;6667;52.634;9.226;2023-04-12T15:01:55;2.53;;;2.10;;
13204;SDS011;6667;52.634;9.226;2023-04-12T15:04:23;2.47;;;2.00;;
13204;SDS011;6667;52.634;9.226;2023-04-12T15:06:50;2.10;;;2.00;;
13204;SDS011;6667;52.634;9.226;2023-04-12T15:09:16;1.77;;;1.67;;
13204;SDS011;6667;52.634;9.226;2023-04-12T15:11:43;3.27;;;2.17;;
13204;SDS011;6667;52.634;9.226;2023-04-12T15:14:10;2.77;;;2.00;;
13204;SDS011;6667;52.634;9.226;2023-04-12T15:16:42;2.07;;;1.87;;
13204;SDS011;6667;52.634;9.226;2023-04-12T15:19:10;2.47;;;2.13;;
13204;SDS011;6667;52.634;9.226;2023-04-12T15:21:37;2.63;;;2.20;;
13204;SDS011;6667;52.634;9.226;2023-04-12T15:24:03;2.27;;;2.00;;
13204;SDS011;6667;52.634;9.226;2023-04-12T15:26:30;2.00;;;1.83;;
13204;SDS011;6667;52.634;9.226;2023-04-12T15:28:58;2.73;;;2.00;;
13204;SDS011;6667;52.634;9.226;2023-04-12T15:31:25;2.43;;;2.23;;
13204;SDS011;6667;52.634;9.226;2023-04-12T15:33:53;2.43;;;1.90;;
13204;SDS011;6667;52.634;9.226;2023-04-12T15:36:21;2.07;;;1.90;;
13204;SDS011;6667;52.634;9.226;2023-04-12T15:38:58;2.60;;;1.67;;
13204;SDS011;6667;52.634;9.226;2023-04-12T15:41:25;2.10;;;1.90;;
13204;SDS011;6667;52.634;9.226;2023-04-12T15:43:51;1.63;;;1.53;;
13204;SDS011;6667;52.634;9.226;2023-04-12T15:46:18;1.70;;;1.60;;
13204;SDS011;6667;52.634;9.226;2023-04-12T15:48:45;1.93;;;1.73;;
13204;SDS011;6667;52.634;9.226;2023-04-12T15:51:13;1.83;;;1.50;;
13204;SDS011;6667;52.634;9.226;2023-04-12T15:53:40;1.87;;;1.50;;
13204;SDS011;6667;52.634;9.226;2023-04-12T15:56:08;1.40;;;1.30;;
13204;SDS011;6667;52.634;9.226;2023-04-12T15:58:36;1.80;;;1.60;;
13204;SDS011;6667;52.634;9.226;2023-04-12T16:01:03;1.90;;;1.80;;
13204;SDS011;6667;52.634;9.226;2023-04-12T16:03:31;1.63;;;1.53;;
13204;SDS011;6667;52.634;9.226;2023-04-12T16:05:58;2.97;;;2.60;;
13204;SDS011;6667;52.634;9.226;2023-04-12T16:08:26;3.30;;;1.97;;
13204;SDS011;6667;52.634;9.226;2023-04-12T16:10:53;1.60;;;1.50;;
13204;SDS011;6667;52.634;9.226;2023-04-12T16:13:19;2.27;;;1.60;;
13204;SDS011;6667;52.634;9.226;2023-04-12T16:15:46;1.83;;;1.57;;
13204;SDS011;6667;52.634;9.226;2023-04-12T16:18:13;2.13;;;1.60;;
13204;SDS011;6667;52.634;9.226;2023-04-12T16:20:39;1.90;;;1.80;;
13204;SDS011;6667;52.634;9.226;2023-04-12T16:23:06;2.03;;;1.83;;
13204;SDS011;6667;52.634;9.226;2023-04-12T16:25:35;2.07;;;1.77;;
13204;SDS011;6667;52.634;9.226;2023-04-12T16:28:02;2.17;;;1.97;;
13204;SDS011;6667;52.634;9.226;2023-04-12T16:30:30;1.73;;;1.63;;
13204;SDS011;6667;52.634;9.226;2023-04-12T16:32:57;1.73;;;1.63;;
13204;SDS011;6667;52.634;9.226;2023-04-12T16:35:24;1.93;;;1.80;;
13204;SDS011;6667;52.634;9.226;2023-04-12T16:37:51;2.37;;;2.00;;
13204;SDS011;6667;52.634;9.226;2023-04-12T16:40:18;4.33;;;2.37;;
13204;SDS011;6667;52.634;9.226;2023-04-12T16:42:46;2.17;;;1.97;;
13204;SDS011;6667;52.634;9.226;2023-04-12T16:45:13;3.30;;;2.30;;
13204;SDS011;6667;52.634;9.226;2023-04-12T16:47:40;3.27;;;2.50;;
13204;SDS011;6667;52.634;9.226;2023-04-12T16:50:07;4.03;;;2.70;;
13204;SDS011;6667;52.634;9.226;2023-04-12T16:52:34;3.13;;;2.83;;
13204;SDS011;6667;52.634;9.226;2023-04-12T16:55:02;2.90;;;2.70;;
13204;SDS011;6667;52.634;9.226;2023-04-12T16:57:29;3.80;;;2.23;;
13204;SDS011;6667;52.634;9.226;2023-04-12T16:59:58;2.30;;;2.10;;
13204;SDS011;6667;52.634;9.226;2023-04-12T17:02:25;2.90;;;2.40;;
13204;SDS011;6667;52.634;9.226;2023-04-12T17:04:52;4.17;;;2.60;;
13204;SDS011;6667;52.634;9.226;2023-04-12T17:07:19;3.10;;;2.10;;
13204;SDS011;6667;52.634;9.226;2023-04-12T17:09:46;2.53;;;2.33;;
13204;SDS011;6667;52.634;9.226;2023-04-12T17:12:13;4.30;;;2.50;;
13204;SDS011;6667;52.634;9.226;2023-04-12T17:14:40;2.77;;;2.33;;
13204;SDS011;6667;52.634;9.226;2023-04-12T17:17:08;5.20;;;3.40;;
13204;SDS011;6667;52.634;9.226;2023-04-12T17:19:35;6.30;;;4.13;;
13204;SDS011;6667;52.634;9.226;2023-04-12T17:22:01;6.57;;;3.73;;
13204;SDS011;6667;52.634;9.226;2023-04-12T17:24:28;3.27;;;2.97;;
13204;SDS011;6667;52.634;9.226;2023-04-12T17:26:56;3.20;;;2.90;;
13204;SDS011;6667;52.634;9.226;2023-04-12T17:29:23;3.50;;;3.10;;
13204;SDS011;6667;52.634;9.226;2023-04-12T17:31:51;3.57;;;3.27;;
13204;SDS011;6667;52.634;9.226;2023-04-12T17:34:19;4.73;;;3.60;;
13204;SDS011;6667;52.634;9.226;2023-04-12T17:36:46;3.53;;;3.23;;
13204;SDS011;6667;52.634;9.226;2023-04-12T17:39:13;3.73;;;1.80;;
13204;SDS011;6667;52.634;9.226;2023-04-12T17:41:40;3.60;;;1.40;;
13204;SDS011;6667;52.634;9.226;2023-04-12T17:44:06;1.83;;;1.43;;
13204;SDS011;6667;52.634;9.226;2023-04-12T17:46:33;1.67;;;1.57;;
13204;SDS011;6667;52.634;9.226;2023-04-12T17:49:00;3.27;;;1.30;;
13204;SDS011;6667;52.634;9.226;2023-04-12T17:51:30;2.23;;;1.50;;
13204;SDS011;6667;52.634;9.226;2023-04-12T17:53:57;4.27;;;1.67;;
13204;SDS011;6667;52.634;9.226;2023-04-12T17:56:24;2.30;;;1.77;;
13204;SDS011;6667;52.634;9.226;2023-04-12T17:58:51;4.23;;;2.10;;
13204;SDS011;6667;52.634;9.226;2023-04-12T18:01:18;3.63;;;1.60;;
13204;SDS011;6667;52.634;9.226;2023-04-12T18:03:46;4.87;;;1.87;;
13204;SDS011;6667;52.634;9.226;2023-04-12T18:06:12;1.73;;;1.37;;
13204;SDS011;6667;52.634;9.226;2023-04-12T18:08:40;3.00;;;1.53;;
13204;SDS011;6667;52.634;9.226;2023-04-12T18:11:09;3.33;;;1.47;;
13204;SDS011;6667;52.634;9.226;2023-04-12T18:13:36;1.43;;;1.33;;
13204;SDS011;6667;52.634;9.226;2023-04-12T18:16:03;3.20;;;1.60;;
13204;SDS011;6667;52.634;9.226;2023-04-12T18:18:31;3.37;;;1.33;;
13204;SDS011;6667;52.634;9.226;2023-04-12T18:20:57;4.27;;;1.90;;
13204;SDS011;6667;52.634;9.226;2023-04-12T18:23:28;4.53;;;1.67;;
13204;SDS011;6667;52.634;9.226;2023-04-12T18:25:57;1.87;;;1.67;;
13204;SDS011;6667;52.634;9.226;2023-04-12T18:28:24;3.47;;;1.67;;
13204;SDS011;6667;52.634;9.226;2023-04-12T18:30:51;1.77;;;1.50;;
13204;SDS011;6667;52.634;9.226;2023-04-12T18:33:18;2.80;;;1.23;;
13204;SDS011;6667;52.634;9.226;2023-04-12T18:35:46;1.93;;;1.60;;
13204;SDS011;6667;52.634;9.226;2023-04-12T18:38:15;2.60;;;1.37;;
13204;SDS011;6667;52.634;9.226;2023-04-12T18:40:42;2.90;;;1.80;;
13204;SDS011;6667;52.634;9.226;2023-04-12T18:43:11;5.33;;;2.10;;
13204;SDS011;6667;52.634;9.226;2023-04-12T18:45:38;6.20;;;2.20;;
13204;SDS011;6667;52.634;9.226;2023-04-12T18:48:06;2.50;;;1.50;;
13204;SDS011;6667;52.634;9.226;2023-04-12T18:50:35;4.57;;;2.00;;
13204;SDS011;6667;52.634;9.226;2023-04-12T18:53:03;3.47;;;1.80;;
13204;SDS011;6667;52.634;9.226;2023-04-12T18:55:31;4.63;;;1.87;;
13204;SDS011;6667;52.634;9.226;2023-04-12T18:57:58;6.23;;;2.00;;
13204;SDS011;6667;52.634;9.226;2023-04-12T19:00:27;5.10;;;1.77;;
13204;SDS011;6667;52.634;9.226;2023-04-12T19:02:55;6.20;;;1.80;;
13204;SDS011;6667;52.634;9.226;2023-04-12T19:05:22;3.40;;;2.10;;
13204;SDS011;6667;52.634;9.226;2023-04-12T19:07:49;4.90;;;2.10;;
13204;SDS011;6667;52.634;9.226;2023-04-12T19:10:17;3.57;;;2.10;;
13204;SDS011;6667;52.634;9.226;2023-04-12T19:12:48;5.30;;;2.70;;
13204;SDS011;6667;52.634;9.226;2023-04-12T19:15:16;5.17;;;2.17;;
13204;SDS011;6667;52.634;9.226;2023-04-12T19:17:45;6.70;;;2.70;;
13204;SDS011;6667;52.634;9.226;2023-04-12T19:20:14;5.40;;;2.10;;
13204;SDS011;6667;52.634;9.226;2023-04-12T19:22:41;4.30;;;1.93;;
13204;SDS011;6667;52.634;9.226;2023-04-12T19:25:09;4.67;;;2.33;;
13204;SDS011;6667;52.634;9.226;2023-04-12T19:27:36;4.23;;;2.53;;
13204;SDS011;6667;52.634;9.226;2023-04-12T19:30:05;4.13;;;2.53;;
13204;SDS011;6667;52.634;9.226;2023-04-12T19:32:35;5.10;;;2.30;;
13204;SDS011;6667;52.634;9.226;2023-04-12T19:35:04;6.60;;;2.27;;
13204;SDS011;6667;52.634;9.226;2023-04-12T19:37:33;4.43;;;2.13;;
13204;SDS011;6667;52.634;9.226;2023-04-12T19:40:01;3.77;;;1.80;;
13204;SDS011;6667;52.634;9.226;2023-04-12T19:42:29;5.53;;;2.43;;
13204;SDS011;6667;52.634;9.226;2023-04-12T19:44:57;5.73;;;1.93;;
13204;SDS011;6667;52.634;9.226;2023-04-12T19:47:25;6.60;;;2.33;;
13204;SDS011;6667;52.634;9.226;2023-04-12T19:49:53;5.93;;;2.30;;
13204;SDS011;6667;52.634;9.226;2023-04-12T19:52:22;5.57;;;2.20;;
13204;SDS011;6667;52.634;9.226;2023-04-12T19:54:51;4.47;;;2.23;;
13204;SDS011;6667;52.634;9.226;2023-04-12T19:57:21;4.83;;;2.17;;
13204;SDS011;6667;52.634;9.226;2023-04-12T19:59:48;8.97;;;2.73;;
13204;SDS011;6667;52.634;9.226;2023-04-12T20:02:17;4.10;;;2.50;;
13204;SDS011;6667;52.634;9.226;2023-04-12T20:04:44;7.50;;;2.00;;
13204;SDS011;6667;52.634;9.226;2023-04-12T20:07:11;5.90;;;2.80;;
13204;SDS011;6667;52.634;9.226;2023-04-12T20:09:41;12.10;;;4.50;;
13204;SDS011;6667;52.634;9.226;2023-04-12T20:12:08;10.30;;;5.00;;
13204;SDS011;6667;52.634;9.226;2023-04-12T20:14:36;7.50;;;4.27;;
13204;SDS011;6667;52.634;9.226;2023-04-12T20:17:04;8.03;;;3.53;;
13204;SDS011;6667;52.634;9.226;2023-04-12T20:19:32;6.57;;;2.93;;
13204;SDS011;6667;52.634;9.226;2023-04-12T20:21:59;8.53;;;3.27;;
13204;SDS011;6667;52.634;9.226;2023-04-12T20:24:28;9.57;;;3.17;;
13204;SDS011;6667;52.634;9.226;2023-04-12T20:27:00;6.37;;;3.07;;
13204;SDS011;6667;52.634;9.226;2023-04-12T20:29:28;5.97;;;2.63;;
13204;SDS011;6667;52.634;9.226;2023-04-12T20:31:56;4.83;;;2.90;;
13204;SDS011;6667;52.634;9.226;2023-04-12T20:34:23;5.97;;;3.10;;
13204;SDS011;6667;52.634;9.226;2023-04-12T20:36:51;6.77;;;2.80;;
13204;SDS011;6667;52.634;9.226;2023-04-12T20:39:19;5.73;;;2.70;;
13204;SDS011;6667;52.634;9.226;2023-04-12T20:41:47;3.53;;;2.60;;
13204;SDS011;6667;52.634;9.226;2023-04-12T20:44:17;5.87;;;2.87;;
13204;SDS011;6667;52.634;9.226;2023-04-12T20:46:45;5.13;;;2.67;;
13204;SDS011;6667;52.634;9.226;2023-04-12T20:49:13;6.37;;;3.13;;
13204;SDS011;6667;52.634;9.226;2023-04-12T20:51:40;5.67;;;2.23;;
13204;SDS011;6667;52.634;9.226;2023-04-12T20:54:10;4.20;;;2.90;;
13204;SDS011;6667;52.634;9.226;2023-04-12T20:56:38;4.80;;;2.20;;
13204;SDS011;6667;52.634;9.226;2023-04-12T20:59:06;4.90;;;2.90;;
13204;SDS011;6667;52.634;9.226;2023-04-12T21:01:36;4.77;;;3.07;;
13204;SDS011;6667;52.634;9.226;2023-04-12T21:04:03;4.07;;;2.90;;
13204;SDS011;6667;52.634;9.226;2023-04-12T21:06:30;5.03;;;2.43;;
13204;SDS011;6667;52.634;9.226;2023-04-12T21:08:58;3.77;;;2.10;;
13204;SDS011;6667;52.634;9.226;2023-04-12T21:11:25;3.97;;;2.17;;
13204;SDS011;6667;52.634;9.226;2023-04-12T21:13:52;6.67;;;2.87;;
